Data for 04/13/2013

Time Sea-Level Adjusted Pressure Absolute Pressure Temperature Relative Humidity Dew Point   
(mb) (inHg) (mb) (inHg) (C) (F) (%) (C) (F)
00:05 1006 29.71 835 24.66 7.5 45.5 29 -9.4 15.1
00:10 1005 29.68 835 24.66 7.5 45.5 28 -9.9 14.2
00:15 1005 29.68 835 24.66 7.7 45.8 27 -10.2 13.6
00:20 1005 29.68 835 24.66 7.9 46.2 27 -10.1 13.8
00:25 1005 29.68 835 24.66 8.1 46.5 27 -9.9 14.1
00:30 1005 29.68 835 24.66 8.1 46.6 27 -9.8 14.3
00:35 1005 29.68 835 24.66 8.2 46.7 27 -9.9 14.2
00:40 1005 29.68 834 24.63 8.4 47.1 27 -9.7 14.5
00:45 1005 29.68 834 24.63 8.5 47.3 28 -9 15.8
00:50 1005 29.68 834 24.63 8.8 47.8 27 -9 15.7
00:55 1005 29.68 834 24.63 8.9 48.1 28 -8.7 16.4
01:00 1005 29.68 834 24.63 8.8 47.8 29 -8.2 17.2
01:05 1005 29.68 834 24.63 8.7 47.6 30 -7.9 17.8
01:10 1005 29.68 834 24.63 8.5 47.3 31 -7.7 18.1
01:15 1005 29.68 834 24.63 8.4 47.1 32 -7.5 18.4
01:20 1005 29.68 834 24.63 8.2 46.8 32 -7.6 18.4
01:25 1005 29.68 834 24.63 8.2 46.8 32 -7.4 18.7
01:30 1005 29.68 834 24.63 8.2 46.8 33 -7.3 18.9
01:35 1005 29.68 834 24.63 8.1 46.6 33 -7.1 19.2
01:40 1005 29.68 834 24.63 8 46.3 33 -7.2 19.1
01:45 1004 29.65 834 24.63 7.9 46.3 34 -7 19.4
01:50 1004 29.65 834 24.63 7.8 46 35 -6.8 19.8
01:55 1004 29.65 834 24.63 7.7 45.8 35 -6.8 19.7
02:00 1004 29.65 834 24.63 7.6 45.7 36 -6.6 20.2
02:05 1004 29.65 833 24.6 7.6 45.7 36 -6.5 20.3
02:10 1004 29.65 833 24.6 7.7 45.8 36 -6.4 20.5
02:15 1004 29.65 833 24.6 7.6 45.7 39 -5.6 21.9
02:20 1004 29.65 833 24.6 7.5 45.5 39 -5.7 21.7
02:25 1004 29.65 833 24.6 7.4 45.4 39 -5.8 21.6
02:30 1004 29.65 833 24.6 7.4 45.3 39 -5.5 22.1
02:35 1004 29.65 833 24.6 7.3 45.1 42 -4.7 23.5
02:40 1004 29.65 833 24.6 7.2 44.9 43 -4.5 24
02:45 1004 29.65 833 24.6 7.1 44.7 44 -4.4 24.1
02:50 1004 29.65 833 24.6 7 44.5 45 -4.2 24.4
02:55 1004 29.65 833 24.6 6.8 44.3 45 -4.3 24.3
03:00 1004 29.65 833 24.6 6.8 44.2 45 -4.2 24.4
03:05 1004 29.65 833 24.6 6.8 44.2 45 -4.2 24.4
03:10 1004 29.65 833 24.6 6.7 44.1 46 -4 24.8
03:15 1004 29.65 833 24.6 6.6 43.9 45 -4.4 24.1
03:20 1003 29.62 833 24.6 6.7 44 45 -4.5 24
03:25 1003 29.62 833 24.6 6.7 44.1 45 -4.3 24.3
03:30 1003 29.62 833 24.6 6.7 44.1 46 -4.1 24.7
03:35 1003 29.62 833 24.6 6.7 44 46 -4.3 24.3
03:40 1003 29.62 832 24.57 6.6 44 46 -4.1 24.7
03:45 1003 29.62 832 24.57 6.6 43.9 46 -4.2 24.5
03:50 1003 29.62 832 24.57 6.6 43.8 47 -3.8 25.1
03:55 1003 29.62 832 24.57 6.4 43.5 47 -4 24.9
04:00 1003 29.62 832 24.57 6.3 43.4 49 -3.6 25.5
04:05 1003 29.62 832 24.57 6.2 43.2 50 -3.3 26
04:10 1003 29.62 832 24.57 6.1 43 51 -3.3 26.1
04:15 1003 29.62 832 24.57 5.9 42.6 58 -1.9 28.7
04:20 1003 29.62 832 24.57 5.3 41.6 60 -1.7 28.9
04:25 1003 29.62 832 24.57 5.1 41.1 64 -1.2 29.8
04:30 1003 29.62 832 24.57 4.7 40.5 65 -1.2 29.9
04:35 1002 29.59 832 24.57 4.6 40.2 67 -1.1 30.1
04:40 1002 29.59 831 24.54 4.4 40 67 -1.1 30
04:45 1002 29.59 831 24.54 4.4 39.9 69 -0.9 30.5
04:50 1002 29.59 831 24.54 4.2 39.6 69 -0.8 30.5
04:55 1002 29.59 831 24.54 4.2 39.6 69 -1 30.2
05:00 1002 29.59 831 24.54 4.2 39.5 70 -0.9 30.5
05:05 1002 29.59 831 24.54 4.1 39.3 71 -0.6 30.9
05:10 1002 29.59 831 24.54 3.9 39 72 -0.6 30.9
05:15 1002 29.59 831 24.54 3.8 38.8 73 -0.7 30.8
05:20 1002 29.59 831 24.54 3.8 38.9 72 -0.7 30.8
05:25 1002 29.59 831 24.54 3.8 38.8 72 -0.7 30.7
05:30 1002 29.59 831 24.54 3.8 38.9 73 -0.6 30.8
05:35 1001 29.56 831 24.54 3.8 38.8 73 -0.7 30.8
05:40 1001 29.56 831 24.54 3.8 38.8 73 -0.7 30.8
05:45 1001 29.56 830 24.51 3.8 38.8 72 -0.7 30.7
05:50 1001 29.56 830 24.51 3.9 38.9 72 -0.7 30.7
05:55 1001 29.56 830 24.51 3.9 39 72 -0.7 30.7
06:00 1001 29.56 830 24.51 3.9 39 72 -0.8 30.6
06:05 1001 29.56 830 24.51 3.9 39.1 71 -0.8 30.6
06:10 1001 29.56 830 24.51 4 39.2 71 -0.8 30.6
06:15 1001 29.56 830 24.51 4 39.2 71 -0.7 30.8
06:20 1001 29.56 830 24.51 4 39.2 72 -0.6 31
06:25 1001 29.56 830 24.51 3.9 39.1 73 -0.5 31
06:30 1001 29.56 830 24.51 4 39.1 72 -0.6 31
06:35 1001 29.56 830 24.51 4 39.2 71 -0.7 30.7
06:40 1001 29.56 830 24.51 4 39.3 71 -0.7 30.8
06:45 1001 29.56 830 24.51 4.1 39.4 71 -0.6 30.9
06:50 1001 29.56 830 24.51 4.1 39.4 71 -0.6 31
06:55 1001 29.56 830 24.51 4.1 39.5 72 -0.5 31.1
07:00 1001 29.56 830 24.51 4.1 39.4 71 -0.6 31
07:05 1001 29.56 830 24.51 4.2 39.5 71 -0.5 31
07:10 1000 29.53 830 24.51 4.2 39.6 71 -0.5 31.2
07:15 1000 29.53 830 24.51 4.3 39.7 71 -0.4 31.2
07:20 1000 29.53 829 24.48 4.3 39.7 72 -0.4 31.3
07:25 1000 29.53 829 24.48 4.3 39.8 72 -0.3 31.5
07:30 1000 29.53 829 24.48 4.4 39.9 72 -0.3 31.5
07:35 1000 29.53 829 24.48 4.6 40.2 70 -0.4 31.3
07:40 1000 29.53 829 24.48 5 40.9 69 -0.3 31.4
07:45 1000 29.53 829 24.48 5.3 41.5 68 -0.2 31.6
07:50 1000 29.53 829 24.48 5.3 41.6 67 -0.4 31.4
07:55 1000 29.53 829 24.48 5.4 41.7 67 -0.3 31.5
08:00 1000 29.53 829 24.48 5.3 41.5 67 -0.3 31.4
08:05 1000 29.53 829 24.48 5.3 41.6 67 -0.4 31.3
08:10 1000 29.53 829 24.48 5.3 41.5 67 -0.3 31.4
08:15 1000 29.53 829 24.48 5.3 41.6 69 0.1 32.1
08:20 1000 29.53 829 24.48 5.4 41.8 68 0 32
08:25 1000 29.53 829 24.48 5 41 75 1 33.8
08:30 1000 29.53 830 24.51 3.3 37.9 84 0.8 33.5
08:35 1000 29.53 830 24.51 2 35.7 89 0.5 32.8
08:40 1001 29.56 830 24.51 1.4 34.6 92 0.2 32.3
08:45 1001 29.56 830 24.51 1 33.8 93 -0 32
08:50 1001 29.56 830 24.51 0.6 33 94 -0.4 31.3
08:55 1001 29.56 830 24.51 0.1 32.2 95 -0.6 30.8
09:00 1001 29.56 831 24.54 -0.1 31.9 96 -0.7 30.8
09:05 1002 29.59 831 24.54 -0.1 31.8 96 -0.7 30.8
09:10 1002 29.59 831 24.54 -0.2 31.6 96 -0.7 30.7
09:15 1002 29.59 831 24.54 -0.2 31.6 97 -0.7 30.7
09:20 1002 29.59 831 24.54 -0.2 31.6 97 -0.7 30.8
09:25 1002 29.59 831 24.54 -0.2 31.6 97 -0.7 30.8
09:30 1002 29.59 831 24.54 -0.2 31.7 97 -0.6 30.9
09:35 1002 29.59 831 24.54 -0.2 31.7 97 -0.6 31
09:40 1002 29.59 831 24.54 -0.1 31.8 97 -0.5 31.1
09:45 1002 29.59 831 24.54 -0 32 97 -0.4 31.3
09:50 1002 29.59 831 24.54 0.2 32.3 97 -0.2 31.6
09:55 1002 29.59 831 24.54 0.4 32.6 97 -0 32
10:00 1002 29.59 831 24.54 0.4 32.7 98 0 32.1
10:05 1002 29.59 831 24.54 0.2 32.3 97 -0.2 31.6
10:10 1002 29.59 831 24.54 0.2 32.3 97 -0.2 31.6
10:15 1002 29.59 831 24.54 0.2 32.4 97 -0.2 31.7
10:20 1002 29.59 831 24.54 0.6 33 97 0.2 32.3
10:25 1002 29.59 831 24.54 0.7 33.3 96 0.2 32.3
10:30 1002 29.59 831 24.54 0.6 33.1 96 -0 31.9
10:35 1001 29.56 831 24.54 1 33.8 94 0.2 32.3
10:40 1001 29.56 831 24.54 1.1 34 94 0.2 32.4
10:45 1001 29.56 830 24.51 1.4 34.5 90 -0.1 31.8
10:50 1001 29.56 830 24.51 1.5 34.7 89 -0.1 31.7
10:55 1001 29.56 830 24.51 1.7 35 87 -0.3 31.5
11:00 1001 29.56 830 24.51 2 35.6 85 -0.2 31.6
11:05 1001 29.56 830 24.51 2.2 35.9 86 0 32.1
11:10 1001 29.56 830 24.51 2.1 35.7 80 -1 30.2
11:15 1001 29.56 830 24.51 2.3 36.1 79 -1 30.3
11:20 1001 29.56 830 24.51 2.8 37.1 75 -1.3 29.7
11:25 1001 29.56 830 24.51 3.7 38.7 67 -1.8 28.7
11:30 1001 29.56 830 24.51 3.7 38.7 70 -1.2 29.9
11:35 1001 29.56 830 24.51 3.9 39 63 -2.5 27.6
11:40 1001 29.56 830 24.51 3.8 38.9 66 -2 28.5
11:45 1001 29.56 830 24.51 3.9 39.1 64 -2.2 28
11:50 1001 29.56 830 24.51 3.9 39 65 -2.1 28.2
11:55 1001 29.56 830 24.51 3.6 38.6 64 -2.6 27.3
12:00 1001 29.56 830 24.51 3.8 38.9 61 -3 26.6
12:05 1001 29.56 830 24.51 4.9 40.7 59 -2.5 27.6
12:10 1001 29.56 830 24.51 5.3 41.6 58 -2.3 27.9
12:15 1001 29.56 830 24.51 4.8 40.6 59 -2.6 27.3
12:20 1001 29.56 830 24.51 4.3 39.7 62 -2.4 27.7
12:25 1001 29.56 830 24.51 4.6 40.2 59 -2.7 27.1
12:30 1001 29.56 830 24.51 5.7 42.3 55 -2.6 27.3
12:35 1001 29.56 830 24.51 6.1 42.9 55 -2.2 28
12:40 1000 29.53 830 24.51 6 42.7 54 -2.7 27.2
12:45 1000 29.53 829 24.48 6.6 43.8 52 -2.5 27.5
12:50 1000 29.53 829 24.48 6.4 43.5 51 -2.9 26.9
12:55 1000 29.53 829 24.48 6.5 43.7 50 -3.2 26.3
13:00 1000 29.53 829 24.48 7 44.7 51 -2.3 27.9
13:05 1000 29.53 829 24.48 6.5 43.6 56 -1.6 29.1
13:10 1000 29.53 829 24.48 6.3 43.3 47 -4.2 24.5
13:15 999 29.5 829 24.48 6.1 42.9 54 -2.6 27.2
13:20 999 29.5 829 24.48 7 44.5 46 -3.9 24.9
13:25 999 29.5 829 24.48 7 44.6 49 -2.9 26.8
13:30 999 29.5 829 24.48 7.1 44.8 44 -4.2 24.4
13:35 999 29.5 829 24.48 7.3 45.1 46 -3.6 25.5
13:40 999 29.5 829 24.48 8 46.5 42 -4 24.8
13:45 1000 29.53 829 24.48 8.1 46.5 42 -4.1 24.7
13:50 1000 29.53 829 24.48 7.5 45.5 41 -4.9 23.2
13:55 1000 29.53 829 24.48 7.4 45.4 42 -4.7 23.5
14:00 1000 29.53 829 24.48 7.7 45.8 37 -5.9 21.4
14:05 1000 29.53 829 24.48 7.4 45.4 41 -5 23.1
14:10 1000 29.53 829 24.48 7.2 44.9 41 -5 22.9
14:15 1000 29.53 829 24.48 7.1 44.7 41 -5.2 22.7
14:20 1000 29.53 830 24.51 6.8 44.2 51 -2.8 27
14:25 1001 29.56 830 24.51 3.8 38.8 71 -0.9 30.3
14:30 1001 29.56 830 24.51 1.7 35.1 81 -1.1 30
14:35 1002 29.59 831 24.54 0.9 33.6 84 -1.5 29.4
14:40 1002 29.59 831 24.54 0.5 33 83 -2.1 28.2
14:45 1002 29.59 831 24.54 0.5 32.9 80 -2.5 27.6
14:50 1002 29.59 831 24.54 0.5 32.9 81 -2.4 27.6
14:55 1002 29.59 832 24.57 0.8 33.5 79 -2.5 27.6
15:00 1002 29.59 832 24.57 1 33.7 77 -2.6 27.3
15:05 1003 29.62 832 24.57 0.9 33.6 79 -2.3 27.8
15:10 1003 29.62 832 24.57 0.7 33.2 83 -1.9 28.5
15:15 1003 29.62 832 24.57 0.5 32.9 86 -1.6 29.2
15:20 1003 29.62 832 24.57 0.4 32.7 85 -1.8 28.7
15:25 1003 29.62 832 24.57 0.1 32.2 86 -1.9 28.6
15:30 1003 29.62 833 24.6 0 32 86 -2 28.4
15:35 1003 29.62 833 24.6 0 32.1 86 -2 28.4
15:40 1003 29.62 833 24.6 0.1 32.1 88 -1.7 28.9
15:45 1003 29.62 833 24.6 0 32 88 -1.7 29
15:50 1003 29.62 833 24.6 -0.1 31.8 88 -1.8 28.7
15:55 1004 29.65 833 24.6 -0.4 31.3 91 -1.7 28.9
16:00 1004 29.65 833 24.6 -0.4 31.3 90 -1.8 28.8
16:05 1004 29.65 833 24.6 -0.4 31.4 90 -1.7 28.9
16:10 1004 29.65 833 24.6 -0.5 31 91 -1.8 28.7
16:15 1004 29.65 833 24.6 -0.8 30.6 92 -1.9 28.6
16:20 1004 29.65 833 24.6 -0.9 30.5 93 -1.9 28.6
16:25 1004 29.65 833 24.6 -1 30.2 94 -1.9 28.6
16:30 1004 29.65 833 24.6 -0.8 30.6 94 -1.7 29
16:35 1004 29.65 833 24.6 -0.5 31.1 92 -1.6 29.2
16:40 1004 29.65 833 24.6 -0.4 31.3 91 -1.7 28.9
16:45 1004 29.65 833 24.6 -0.4 31.2 89 -2 28.4
16:50 1004 29.65 833 24.6 -0.3 31.5 88 -2.1 28.3
16:55 1004 29.65 833 24.6 -0.4 31.2 88 -2.2 28.1
17:00 1004 29.65 833 24.6 -0.3 31.4 87 -2.3 27.9
17:05 1004 29.65 833 24.6 -0.3 31.4 86 -2.3 27.8
17:10 1004 29.65 833 24.6 -0.4 31.3 87 -2.2 28
17:15 1004 29.65 833 24.6 -0.7 30.8 87 -2.6 27.4
17:20 1004 29.65 834 24.63 -0.6 30.9 85 -2.8 27
17:25 1005 29.68 834 24.63 -0.5 31.1 82 -3.2 26.3
17:30 1005 29.68 834 24.63 -0.4 31.2 77 -4 24.8
17:35 1005 29.68 834 24.63 -0.1 31.8 77 -3.7 25.3
17:40 1005 29.68 834 24.63 0.2 32.3 75 -3.8 25.1
17:45 1005 29.68 834 24.63 -0.1 31.8 78 -3.4 25.9
17:50 1005 29.68 834 24.63 -0.3 31.4 83 -2.9 26.8
17:55 1005 29.68 835 24.66 -0.4 31.3 81 -3.3 26.1
18:00 1005 29.68 835 24.66 -0.2 31.6 79 -3.5 25.7
18:05 1006 29.71 835 24.66 -0.2 31.7 80 -3.3 26.1
18:10 1006 29.71 835 24.66 -0.1 31.8 80 -3.2 26.2
18:15 1006 29.71 835 24.66 -0.1 31.9 78 -3.5 25.7
18:20 1006 29.71 835 24.66 -0.2 31.7 77 -3.8 25.2
18:25 1006 29.71 835 24.66 -0.1 31.7 74 -4.2 24.4
18:30 1006 29.71 835 24.66 0.1 32.1 62 -6.3 20.7
18:35 1006 29.71 835 24.66 0.3 32.6 48 -9.6 14.8
18:40 1006 29.71 835 24.66 0.5 32.8 43 -10.8 12.5
18:45 1006 29.71 835 24.66 0.4 32.8 37 -12.5 9.5
18:50 1006 29.71 835 24.66 0.5 32.9 43 -10.7 12.8
18:55 1006 29.71 835 24.66 0.4 32.8 41 -11.4 11.6
19:00 1006 29.71 835 24.66 0.3 32.6 37 -12.9 8.8
19:05 1006 29.71 835 24.66 0.4 32.8 37 -12.6 9.3
19:10 1006 29.71 835 24.66 0.5 33 40 -11.6 11.1
19:15 1006 29.71 835 24.66 0.4 32.8 45 -10.1 13.9
19:20 1006 29.71 835 24.66 0.3 32.5 45 -10.2 13.6
19:25 1006 29.71 836 24.69 0.1 32.3 50 -9.2 15.4
19:30 1006 29.71 836 24.69 0 32 48 -9.8 14.4
19:35 1007 29.74 836 24.69 -0 32 50 -9.2 15.4
19:40 1007 29.74 836 24.69 -0.1 31.9 48 -9.7 14.5
19:45 1007 29.74 836 24.69 -0.1 31.8 51 -9 15.8
19:50 1007 29.74 836 24.69 -0.2 31.6 53 -8.8 16.2
19:55 1007 29.74 836 24.69 -0.2 31.6 51 -9.2 15.4
20:00 1007 29.74 836 24.69 -0.3 31.5 52 -9 15.7
20:05 1007 29.74 836 24.69 -0.3 31.4 50 -9.5 15
20:10 1007 29.74 836 24.69 -0.3 31.4 50 -9.5 14.8
20:15 1007 29.74 836 24.69 -0.3 31.5 50 -9.4 15.1
20:20 1007 29.74 836 24.69 -0.4 31.3 51 -9.2 15.4
20:25 1007 29.74 836 24.69 -0.4 31.2 52 -9.1 15.7
20:30 1007 29.74 836 24.69 -0.5 31.1 51 -9.4 15
20:35 1007 29.74 836 24.69 -0.5 31 50 -9.7 14.6
20:40 1007 29.74 836 24.69 -0.5 31 51 -9.4 15
20:45 1007 29.74 836 24.69 -0.6 30.9 49 -10 14
20:50 1007 29.74 836 24.69 -0.7 30.8 53 -9.1 15.6
20:55 1007 29.74 836 24.69 -0.9 30.4 56 -8.5 16.7
21:00 1007 29.74 836 24.69 -1.2 29.9 59 -8.3 17.1
21:05 1007 29.74 836 24.69 -1.3 29.7 60 -8 17.6
21:10 1007 29.74 837 24.72 -1.3 29.7 58 -8.6 16.5
21:15 1007 29.74 837 24.72 -1.1 30 58 -8.4 16.8
21:20 1007 29.74 837 24.72 -1.2 29.8 58 -8.4 16.8
21:25 1007 29.74 837 24.72 -1.3 29.7 58 -8.5 16.8
21:30 1007 29.74 837 24.72 -1.3 29.8 58 -8.6 16.6
21:35 1007 29.74 837 24.72 -1.3 29.7 56 -8.8 16.1
21:40 1007 29.74 837 24.72 -1.1 29.9 52 -9.9 14.2
21:45 1007 29.74 837 24.72 -1 30.2 53 -9.4 15.1
21:50 1007 29.74 837 24.72 -1.1 30.1 52 -9.8 14.4
21:55 1007 29.74 837 24.72 -1 30.3 49 -10.3 13.4
22:00 1007 29.74 837 24.72 -1 30.2 51 -9.9 14.2
22:05 1007 29.74 837 24.72 -1.1 29.9 51 -10 14
22:10 1007 29.74 837 24.72 -1.2 29.8 51 -10.2 13.7
22:15 1007 29.74 837 24.72 -1.4 29.6 51 -10.2 13.6
22:20 1007 29.74 837 24.72 -1.5 29.3 52 -10.1 13.8
22:25 1007 29.74 837 24.72 -1.5 29.2 52 -10.1 13.7
22:30 1007 29.74 837 24.72 -1.5 29.2 53 -9.9 14.2
22:35 1007 29.74 837 24.72 -1.6 29.2 54 -9.7 14.5
22:40 1007 29.74 837 24.72 -1.6 29.2 53 -9.9 14.2
22:45 1007 29.74 837 24.72 -1.6 29.1 53 -9.9 14.2
22:50 1007 29.74 837 24.72 -1.6 29 53 -10.1 13.9
22:55 1007 29.74 837 24.72 -1.6 29.1 53 -10 14
23:00 1007 29.74 837 24.72 -1.6 29.1 53 -10.1 13.9
23:05 1007 29.74 837 24.72 -1.6 29.1 51 -10.6 13
23:10 1007 29.74 837 24.72 -1.6 29.2 50 -10.6 12.9
23:15 1007 29.74 837 24.72 -1.6 29.2 54 -9.8 14.4
23:20 1007 29.74 837 24.72 -1.6 29.1 53 -10 14
23:25 1007 29.74 837 24.72 -1.7 29 54 -9.7 14.6
23:30 1007 29.74 837 24.72 -1.7 29 55 -9.5 14.8
23:35 1007 29.74 837 24.72 -1.6 29.1 55 -9.6 14.7
23:40 1008 29.77 837 24.72 -1.6 29.2 54 -9.7 14.5
23:45 1008 29.77 837 24.72 -1.5 29.2 55 -9.6 14.8
23:50 1008 29.77 837 24.72 -1.6 29.2 55 -9.4 15.1
23:55 1008 29.77 837 24.72 -1.7 28.9 58 -8.9 16
24:00 1008 29.77 837 24.72 -1.8 28.7 59 -8.8 16.1